sensor_id;sensor_type;location;lat;lon;timestamp;P1;durP1;ratioP1;P2;durP2;ratioP2
41966;SDS011;27656;53.068;8.818;2024-03-08T00:00:00;28.20;;;15.60;;
41966;SDS011;27656;53.068;8.818;2024-03-08T00:02:36;31.93;;;15.20;;
41966;SDS011;27656;53.068;8.818;2024-03-08T00:05:04;27.73;;;14.77;;
41966;SDS011;27656;53.068;8.818;2024-03-08T00:07:31;31.03;;;15.17;;
41966;SDS011;27656;53.068;8.818;2024-03-08T00:09:57;30.13;;;15.97;;
41966;SDS011;27656;53.068;8.818;2024-03-08T00:12:24;33.70;;;15.97;;
41966;SDS011;27656;53.068;8.818;2024-03-08T00:14:53;28.13;;;15.37;;
41966;SDS011;27656;53.068;8.818;2024-03-08T00:17:21;29.13;;;15.60;;
41966;SDS011;27656;53.068;8.818;2024-03-08T00:19:51;31.73;;;15.40;;
41966;SDS011;27656;53.068;8.818;2024-03-08T00:22:17;31.80;;;15.93;;
41966;SDS011;27656;53.068;8.818;2024-03-08T00:24:44;28.30;;;14.87;;
41966;SDS011;27656;53.068;8.818;2024-03-08T00:27:11;30.93;;;15.07;;
41966;SDS011;27656;53.068;8.818;2024-03-08T00:29:38;29.07;;;15.40;;
41966;SDS011;27656;53.068;8.818;2024-03-08T00:32:07;28.20;;;15.43;;
41966;SDS011;27656;53.068;8.818;2024-03-08T00:34:37;29.43;;;14.87;;
41966;SDS011;27656;53.068;8.818;2024-03-08T00:37:03;31.97;;;15.07;;
41966;SDS011;27656;53.068;8.818;2024-03-08T00:39:30;27.20;;;14.67;;
41966;SDS011;27656;53.068;8.818;2024-03-08T00:41:56;26.03;;;14.20;;
41966;SDS011;27656;53.068;8.818;2024-03-08T00:44:23;29.03;;;14.90;;
41966;SDS011;27656;53.068;8.818;2024-03-08T00:46:50;29.70;;;15.70;;
41966;SDS011;27656;53.068;8.818;2024-03-08T00:49:20;28.97;;;15.00;;
41966;SDS011;27656;53.068;8.818;2024-03-08T00:51:47;29.87;;;15.10;;
41966;SDS011;27656;53.068;8.818;2024-03-08T00:54:14;28.73;;;15.47;;
41966;SDS011;27656;53.068;8.818;2024-03-08T00:56:41;27.10;;;14.80;;
41966;SDS011;27656;53.068;8.818;2024-03-08T00:59:07;27.43;;;15.17;;
41966;SDS011;27656;53.068;8.818;2024-03-08T01:01:34;31.83;;;14.53;;
41966;SDS011;27656;53.068;8.818;2024-03-08T01:04:00;29.60;;;15.27;;
41966;SDS011;27656;53.068;8.818;2024-03-08T01:06:27;27.77;;;14.70;;
41966;SDS011;27656;53.068;8.818;2024-03-08T01:08:53;27.30;;;14.80;;
41966;SDS011;27656;53.068;8.818;2024-03-08T01:11:20;28.43;;;15.73;;
41966;SDS011;27656;53.068;8.818;2024-03-08T01:13:46;32.53;;;16.10;;
41966;SDS011;27656;53.068;8.818;2024-03-08T01:16:13;28.77;;;15.47;;
41966;SDS011;27656;53.068;8.818;2024-03-08T01:18:42;25.80;;;14.53;;
41966;SDS011;27656;53.068;8.818;2024-03-08T01:21:09;28.07;;;14.77;;
41966;SDS011;27656;53.068;8.818;2024-03-08T01:23:36;27.60;;;14.60;;
41966;SDS011;27656;53.068;8.818;2024-03-08T01:26:03;31.27;;;15.43;;
41966;SDS011;27656;53.068;8.818;2024-03-08T01:28:30;27.10;;;14.43;;
41966;SDS011;27656;53.068;8.818;2024-03-08T01:30:57;28.83;;;15.30;;
41966;SDS011;27656;53.068;8.818;2024-03-08T01:33:25;32.33;;;15.67;;
41966;SDS011;27656;53.068;8.818;2024-03-08T01:35:53;26.70;;;13.53;;
41966;SDS011;27656;53.068;8.818;2024-03-08T01:38:20;28.70;;;15.20;;
41966;SDS011;27656;53.068;8.818;2024-03-08T01:40:49;28.97;;;14.70;;
41966;SDS011;27656;53.068;8.818;2024-03-08T01:43:21;31.27;;;15.80;;
41966;SDS011;27656;53.068;8.818;2024-03-08T01:45:51;28.83;;;14.80;;
41966;SDS011;27656;53.068;8.818;2024-03-08T01:48:17;29.27;;;15.43;;
41966;SDS011;27656;53.068;8.818;2024-03-08T01:50:45;33.90;;;15.90;;
41966;SDS011;27656;53.068;8.818;2024-03-08T01:53:12;30.57;;;15.30;;
41966;SDS011;27656;53.068;8.818;2024-03-08T01:55:41;32.33;;;16.07;;
41966;SDS011;27656;53.068;8.818;2024-03-08T01:58:09;28.53;;;14.77;;
41966;SDS011;27656;53.068;8.818;2024-03-08T02:00:38;32.93;;;15.87;;
41966;SDS011;27656;53.068;8.818;2024-03-08T02:03:07;37.30;;;15.87;;
41966;SDS011;27656;53.068;8.818;2024-03-08T02:05:34;28.80;;;15.23;;
41966;SDS011;27656;53.068;8.818;2024-03-08T02:08:01;30.47;;;16.07;;
41966;SDS011;27656;53.068;8.818;2024-03-08T02:10:28;31.87;;;16.67;;
41966;SDS011;27656;53.068;8.818;2024-03-08T02:12:55;28.07;;;16.30;;
41966;SDS011;27656;53.068;8.818;2024-03-08T02:15:21;30.77;;;15.70;;
41966;SDS011;27656;53.068;8.818;2024-03-08T02:17:48;31.67;;;15.03;;
41966;SDS011;27656;53.068;8.818;2024-03-08T02:20:15;37.50;;;15.50;;
41966;SDS011;27656;53.068;8.818;2024-03-08T02:22:41;32.67;;;15.03;;
41966;SDS011;27656;53.068;8.818;2024-03-08T02:25:08;31.33;;;15.77;;
41966;SDS011;27656;53.068;8.818;2024-03-08T02:27:35;31.70;;;15.43;;
41966;SDS011;27656;53.068;8.818;2024-03-08T02:30:02;29.30;;;15.63;;
41966;SDS011;27656;53.068;8.818;2024-03-08T02:32:29;33.40;;;15.87;;
41966;SDS011;27656;53.068;8.818;2024-03-08T02:34:56;31.43;;;15.67;;
41966;SDS011;27656;53.068;8.818;2024-03-08T02:37:26;29.93;;;15.80;;
41966;SDS011;27656;53.068;8.818;2024-03-08T02:39:54;30.20;;;16.17;;
41966;SDS011;27656;53.068;8.818;2024-03-08T02:42:21;25.47;;;15.07;;
41966;SDS011;27656;53.068;8.818;2024-03-08T02:44:49;30.90;;;15.90;;
41966;SDS011;27656;53.068;8.818;2024-03-08T02:47:15;31.47;;;15.63;;
41966;SDS011;27656;53.068;8.818;2024-03-08T02:49:42;30.70;;;15.70;;
41966;SDS011;27656;53.068;8.818;2024-03-08T02:52:08;25.67;;;14.60;;
41966;SDS011;27656;53.068;8.818;2024-03-08T02:54:35;31.87;;;16.43;;
41966;SDS011;27656;53.068;8.818;2024-03-08T02:57:02;28.70;;;14.53;;
41966;SDS011;27656;53.068;8.818;2024-03-08T02:59:30;31.23;;;16.07;;
41966;SDS011;27656;53.068;8.818;2024-03-08T03:01:56;28.93;;;15.87;;
41966;SDS011;27656;53.068;8.818;2024-03-08T03:04:24;32.17;;;15.70;;
41966;SDS011;27656;53.068;8.818;2024-03-08T03:06:50;28.10;;;15.13;;
41966;SDS011;27656;53.068;8.818;2024-03-08T03:09:17;28.07;;;15.47;;
41966;SDS011;27656;53.068;8.818;2024-03-08T03:11:49;31.67;;;16.30;;
41966;SDS011;27656;53.068;8.818;2024-03-08T03:14:16;30.63;;;16.40;;
41966;SDS011;27656;53.068;8.818;2024-03-08T03:16:42;31.03;;;16.67;;
41966;SDS011;27656;53.068;8.818;2024-03-08T03:19:10;33.23;;;16.50;;
41966;SDS011;27656;53.068;8.818;2024-03-08T03:21:36;31.20;;;16.00;;
41966;SDS011;27656;53.068;8.818;2024-03-08T03:24:04;35.90;;;16.47;;
41966;SDS011;27656;53.068;8.818;2024-03-08T03:26:37;32.70;;;16.27;;
41966;SDS011;27656;53.068;8.818;2024-03-08T03:29:07;30.97;;;16.70;;
41966;SDS011;27656;53.068;8.818;2024-03-08T03:31:35;31.57;;;16.57;;
41966;SDS011;27656;53.068;8.818;2024-03-08T03:34:02;33.80;;;17.03;;
41966;SDS011;27656;53.068;8.818;2024-03-08T03:36:30;31.70;;;16.13;;
41966;SDS011;27656;53.068;8.818;2024-03-08T03:38:57;29.03;;;15.37;;
41966;SDS011;27656;53.068;8.818;2024-03-08T03:41:31;34.27;;;17.07;;
41966;SDS011;27656;53.068;8.818;2024-03-08T03:43:58;33.97;;;15.77;;
41966;SDS011;27656;53.068;8.818;2024-03-08T03:46:25;31.23;;;16.60;;
41966;SDS011;27656;53.068;8.818;2024-03-08T03:48:56;29.67;;;15.60;;
41966;SDS011;27656;53.068;8.818;2024-03-08T03:51:22;35.73;;;17.00;;
41966;SDS011;27656;53.068;8.818;2024-03-08T03:53:48;32.17;;;17.07;;
41966;SDS011;27656;53.068;8.818;2024-03-08T03:56:15;29.30;;;16.70;;
41966;SDS011;27656;53.068;8.818;2024-03-08T03:58:41;30.93;;;15.83;;
41966;SDS011;27656;53.068;8.818;2024-03-08T04:01:08;33.87;;;17.27;;
41966;SDS011;27656;53.068;8.818;2024-03-08T04:03:36;34.00;;;17.20;;
41966;SDS011;27656;53.068;8.818;2024-03-08T04:06:04;32.10;;;17.00;;
41966;SDS011;27656;53.068;8.818;2024-03-08T04:08:30;34.47;;;16.97;;
41966;SDS011;27656;53.068;8.818;2024-03-08T04:10:57;31.07;;;16.43;;
41966;SDS011;27656;53.068;8.818;2024-03-08T04:13:24;33.33;;;17.57;;
41966;SDS011;27656;53.068;8.818;2024-03-08T04:15:51;32.97;;;17.07;;
41966;SDS011;27656;53.068;8.818;2024-03-08T04:18:17;28.93;;;16.03;;
41966;SDS011;27656;53.068;8.818;2024-03-08T04:20:45;30.77;;;17.63;;
41966;SDS011;27656;53.068;8.818;2024-03-08T04:23:12;34.50;;;18.70;;
41966;SDS011;27656;53.068;8.818;2024-03-08T04:25:38;36.40;;;17.63;;
41966;SDS011;27656;53.068;8.818;2024-03-08T04:28:04;34.73;;;18.13;;
41966;SDS011;27656;53.068;8.818;2024-03-08T04:30:31;36.90;;;17.97;;
41966;SDS011;27656;53.068;8.818;2024-03-08T04:32:58;33.43;;;16.70;;
41966;SDS011;27656;53.068;8.818;2024-03-08T04:35:24;36.97;;;18.03;;
41966;SDS011;27656;53.068;8.818;2024-03-08T04:37:51;34.93;;;18.70;;
41966;SDS011;27656;53.068;8.818;2024-03-08T04:40:18;37.37;;;18.40;;
41966;SDS011;27656;53.068;8.818;2024-03-08T04:42:45;37.70;;;18.03;;
41966;SDS011;27656;53.068;8.818;2024-03-08T04:45:11;37.03;;;18.00;;
41966;SDS011;27656;53.068;8.818;2024-03-08T04:47:38;37.00;;;18.87;;
41966;SDS011;27656;53.068;8.818;2024-03-08T04:50:05;34.60;;;17.00;;
41966;SDS011;27656;53.068;8.818;2024-03-08T04:52:32;36.43;;;18.90;;
41966;SDS011;27656;53.068;8.818;2024-03-08T04:54:58;34.23;;;17.97;;
41966;SDS011;27656;53.068;8.818;2024-03-08T04:57:25;43.37;;;17.83;;
41966;SDS011;27656;53.068;8.818;2024-03-08T04:59:52;35.40;;;18.10;;
41966;SDS011;27656;53.068;8.818;2024-03-08T05:02:18;36.57;;;18.33;;
41966;SDS011;27656;53.068;8.818;2024-03-08T05:04:45;34.27;;;17.33;;
41966;SDS011;27656;53.068;8.818;2024-03-08T05:07:11;31.97;;;17.60;;
41966;SDS011;27656;53.068;8.818;2024-03-08T05:09:37;38.80;;;18.83;;
41966;SDS011;27656;53.068;8.818;2024-03-08T05:12:04;35.63;;;18.07;;
41966;SDS011;27656;53.068;8.818;2024-03-08T05:14:31;38.13;;;18.47;;
41966;SDS011;27656;53.068;8.818;2024-03-08T05:16:57;33.73;;;18.13;;
41966;SDS011;27656;53.068;8.818;2024-03-08T05:19:24;38.53;;;19.10;;
41966;SDS011;27656;53.068;8.818;2024-03-08T05:21:50;38.23;;;18.47;;
41966;SDS011;27656;53.068;8.818;2024-03-08T05:24:17;34.63;;;18.60;;
41966;SDS011;27656;53.068;8.818;2024-03-08T05:26:45;34.40;;;18.13;;
41966;SDS011;27656;53.068;8.818;2024-03-08T05:29:12;34.00;;;17.97;;
41966;SDS011;27656;53.068;8.818;2024-03-08T05:31:50;38.20;;;20.20;;
41966;SDS011;27656;53.068;8.818;2024-03-08T05:34:21;37.77;;;18.53;;
41966;SDS011;27656;53.068;8.818;2024-03-08T05:36:48;37.13;;;18.70;;
41966;SDS011;27656;53.068;8.818;2024-03-08T05:39:18;36.27;;;19.00;;
41966;SDS011;27656;53.068;8.818;2024-03-08T05:41:46;40.77;;;19.23;;
41966;SDS011;27656;53.068;8.818;2024-03-08T05:44:13;36.47;;;19.20;;
41966;SDS011;27656;53.068;8.818;2024-03-08T05:46:39;35.90;;;19.00;;
41966;SDS011;27656;53.068;8.818;2024-03-08T05:49:06;37.23;;;19.70;;
41966;SDS011;27656;53.068;8.818;2024-03-08T05:51:37;39.03;;;18.27;;
41966;SDS011;27656;53.068;8.818;2024-03-08T05:54:05;40.43;;;18.53;;
41966;SDS011;27656;53.068;8.818;2024-03-08T05:56:35;41.17;;;18.97;;
41966;SDS011;27656;53.068;8.818;2024-03-08T05:59:02;37.30;;;19.63;;
41966;SDS011;27656;53.068;8.818;2024-03-08T06:01:30;39.17;;;19.07;;
41966;SDS011;27656;53.068;8.818;2024-03-08T06:04:02;36.13;;;18.93;;
41966;SDS011;27656;53.068;8.818;2024-03-08T06:06:30;39.03;;;19.47;;
41966;SDS011;27656;53.068;8.818;2024-03-08T06:08:56;40.30;;;19.33;;
41966;SDS011;27656;53.068;8.818;2024-03-08T06:11:25;41.23;;;20.83;;
41966;SDS011;27656;53.068;8.818;2024-03-08T06:13:56;37.87;;;20.50;;
41966;SDS011;27656;53.068;8.818;2024-03-08T06:16:26;39.73;;;19.97;;
41966;SDS011;27656;53.068;8.818;2024-03-08T06:18:56;38.23;;;18.90;;
41966;SDS011;27656;53.068;8.818;2024-03-08T06:21:24;37.33;;;19.07;;
41966;SDS011;27656;53.068;8.818;2024-03-08T06:23:53;39.00;;;19.10;;
41966;SDS011;27656;53.068;8.818;2024-03-08T06:26:21;34.57;;;19.23;;
41966;SDS011;27656;53.068;8.818;2024-03-08T06:28:48;36.43;;;18.33;;
41966;SDS011;27656;53.068;8.818;2024-03-08T06:31:15;39.63;;;19.47;;
41966;SDS011;27656;53.068;8.818;2024-03-08T06:33:41;42.87;;;19.93;;
41966;SDS011;27656;53.068;8.818;2024-03-08T06:36:08;36.00;;;19.63;;
41966;SDS011;27656;53.068;8.818;2024-03-08T06:38:35;39.90;;;19.00;;
41966;SDS011;27656;53.068;8.818;2024-03-08T06:41:02;37.40;;;18.47;;
41966;SDS011;27656;53.068;8.818;2024-03-08T06:43:30;37.30;;;20.27;;
41966;SDS011;27656;53.068;8.818;2024-03-08T06:46:01;40.57;;;19.90;;
41966;SDS011;27656;53.068;8.818;2024-03-08T06:48:30;36.60;;;19.17;;
41966;SDS011;27656;53.068;8.818;2024-03-08T06:50:56;36.87;;;19.30;;
41966;SDS011;27656;53.068;8.818;2024-03-08T06:53:23;38.07;;;20.33;;
41966;SDS011;27656;53.068;8.818;2024-03-08T06:55:53;39.13;;;18.83;;
41966;SDS011;27656;53.068;8.818;2024-03-08T06:58:20;36.43;;;20.00;;
41966;SDS011;27656;53.068;8.818;2024-03-08T07:00:47;33.37;;;19.00;;
41966;SDS011;27656;53.068;8.818;2024-03-08T07:03:18;38.03;;;19.60;;
41966;SDS011;27656;53.068;8.818;2024-03-08T07:05:45;36.43;;;19.60;;
41966;SDS011;27656;53.068;8.818;2024-03-08T07:08:11;37.77;;;19.70;;
41966;SDS011;27656;53.068;8.818;2024-03-08T07:10:40;35.83;;;18.70;;
41966;SDS011;27656;53.068;8.818;2024-03-08T07:13:08;41.77;;;20.30;;
41966;SDS011;27656;53.068;8.818;2024-03-08T07:15:34;35.63;;;18.60;;
41966;SDS011;27656;53.068;8.818;2024-03-08T07:18:02;35.40;;;18.63;;
41966;SDS011;27656;53.068;8.818;2024-03-08T07:20:29;35.57;;;19.87;;
41966;SDS011;27656;53.068;8.818;2024-03-08T07:22:56;34.27;;;18.50;;
41966;SDS011;27656;53.068;8.818;2024-03-08T07:25:22;41.40;;;19.50;;
41966;SDS011;27656;53.068;8.818;2024-03-08T07:27:53;37.93;;;19.47;;
41966;SDS011;27656;53.068;8.818;2024-03-08T07:30:21;39.80;;;19.97;;
41966;SDS011;27656;53.068;8.818;2024-03-08T07:33:08;37.40;;;19.00;;
41966;SDS011;27656;53.068;8.818;2024-03-08T07:35:39;36.40;;;18.93;;
41966;SDS011;27656;53.068;8.818;2024-03-08T07:38:07;35.63;;;18.17;;
41966;SDS011;27656;53.068;8.818;2024-03-08T07:40:36;37.30;;;19.00;;
41966;SDS011;27656;53.068;8.818;2024-03-08T07:43:05;32.77;;;18.33;;
41966;SDS011;27656;53.068;8.818;2024-03-08T07:45:31;32.20;;;18.47;;
41966;SDS011;27656;53.068;8.818;2024-03-08T07:47:58;35.00;;;18.03;;
41966;SDS011;27656;53.068;8.818;2024-03-08T07:50:24;35.40;;;17.83;;
41966;SDS011;27656;53.068;8.818;2024-03-08T07:52:51;35.00;;;18.67;;
41966;SDS011;27656;53.068;8.818;2024-03-08T07:55:17;29.67;;;16.47;;
41966;SDS011;27656;53.068;8.818;2024-03-08T07:57:44;31.00;;;17.47;;
41966;SDS011;27656;53.068;8.818;2024-03-08T08:00:11;32.70;;;17.33;;
41966;SDS011;27656;53.068;8.818;2024-03-08T08:02:44;33.23;;;16.83;;
41966;SDS011;27656;53.068;8.818;2024-03-08T08:05:11;34.97;;;18.80;;
41966;SDS011;27656;53.068;8.818;2024-03-08T08:07:38;31.40;;;18.33;;
41966;SDS011;27656;53.068;8.818;2024-03-08T08:10:04;30.93;;;17.60;;
41966;SDS011;27656;53.068;8.818;2024-03-08T08:12:32;36.80;;;18.43;;
41966;SDS011;27656;53.068;8.818;2024-03-08T08:15:00;34.03;;;18.20;;
41966;SDS011;27656;53.068;8.818;2024-03-08T08:17:28;32.80;;;17.53;;
41966;SDS011;27656;53.068;8.818;2024-03-08T08:19:54;30.47;;;17.37;;
41966;SDS011;27656;53.068;8.818;2024-03-08T08:22:22;34.83;;;17.97;;
41966;SDS011;27656;53.068;8.818;2024-03-08T08:24:48;37.07;;;18.60;;
41966;SDS011;27656;53.068;8.818;2024-03-08T08:27:15;32.30;;;18.53;;
41966;SDS011;27656;53.068;8.818;2024-03-08T08:29:41;35.57;;;18.67;;
41966;SDS011;27656;53.068;8.818;2024-03-08T08:32:09;30.37;;;18.10;;
41966;SDS011;27656;53.068;8.818;2024-03-08T08:34:37;36.13;;;18.33;;
41966;SDS011;27656;53.068;8.818;2024-03-08T08:37:03;38.07;;;19.17;;
41966;SDS011;27656;53.068;8.818;2024-03-08T08:39:29;32.67;;;17.97;;
41966;SDS011;27656;53.068;8.818;2024-03-08T08:41:56;36.20;;;19.63;;
41966;SDS011;27656;53.068;8.818;2024-03-08T08:44:23;34.70;;;19.03;;
41966;SDS011;27656;53.068;8.818;2024-03-08T08:46:50;32.50;;;18.37;;
41966;SDS011;27656;53.068;8.818;2024-03-08T08:49:22;40.27;;;18.40;;
41966;SDS011;27656;53.068;8.818;2024-03-08T08:51:50;31.57;;;18.30;;
41966;SDS011;27656;53.068;8.818;2024-03-08T08:54:18;30.50;;;18.03;;
41966;SDS011;27656;53.068;8.818;2024-03-08T08:56:46;32.27;;;17.47;;
41966;SDS011;27656;53.068;8.818;2024-03-08T08:59:14;30.17;;;17.70;;
41966;SDS011;27656;53.068;8.818;2024-03-08T09:01:40;34.37;;;17.80;;
41966;SDS011;27656;53.068;8.818;2024-03-08T09:04:07;31.90;;;18.47;;
41966;SDS011;27656;53.068;8.818;2024-03-08T09:06:34;31.70;;;17.47;;
41966;SDS011;27656;53.068;8.818;2024-03-08T09:09:02;34.60;;;19.10;;
41966;SDS011;27656;53.068;8.818;2024-03-08T09:11:32;33.30;;;18.63;;
41966;SDS011;27656;53.068;8.818;2024-03-08T09:13:59;30.20;;;17.63;;
41966;SDS011;27656;53.068;8.818;2024-03-08T09:16:25;33.63;;;18.80;;
41966;SDS011;27656;53.068;8.818;2024-03-08T09:18:52;29.17;;;17.60;;
41966;SDS011;27656;53.068;8.818;2024-03-08T09:21:19;32.70;;;17.57;;
41966;SDS011;27656;53.068;8.818;2024-03-08T09:23:49;31.73;;;17.07;;
41966;SDS011;27656;53.068;8.818;2024-03-08T09:26:15;33.27;;;17.60;;
41966;SDS011;27656;53.068;8.818;2024-03-08T09:28:53;33.33;;;17.83;;
41966;SDS011;27656;53.068;8.818;2024-03-08T09:31:23;32.07;;;17.33;;
41966;SDS011;27656;53.068;8.818;2024-03-08T09:33:49;30.43;;;16.90;;
41966;SDS011;27656;53.068;8.818;2024-03-08T09:36:17;28.07;;;17.17;;
41966;SDS011;27656;53.068;8.818;2024-03-08T09:38:44;30.67;;;17.07;;
41966;SDS011;27656;53.068;8.818;2024-03-08T09:41:10;31.43;;;17.87;;
41966;SDS011;27656;53.068;8.818;2024-03-08T09:43:36;31.43;;;17.20;;
41966;SDS011;27656;53.068;8.818;2024-03-08T09:46:04;29.60;;;16.90;;
41966;SDS011;27656;53.068;8.818;2024-03-08T09:48:33;31.07;;;18.27;;
41966;SDS011;27656;53.068;8.818;2024-03-08T09:51:00;29.03;;;16.97;;
41966;SDS011;27656;53.068;8.818;2024-03-08T09:53:27;32.80;;;18.10;;
41966;SDS011;27656;53.068;8.818;2024-03-08T09:55:54;28.93;;;17.90;;
41966;SDS011;27656;53.068;8.818;2024-03-08T09:58:21;30.70;;;17.80;;
41966;SDS011;27656;53.068;8.818;2024-03-08T10:00:59;32.97;;;18.17;;
41966;SDS011;27656;53.068;8.818;2024-03-08T10:03:31;30.20;;;17.73;;
41966;SDS011;27656;53.068;8.818;2024-03-08T10:06:01;32.63;;;17.67;;
41966;SDS011;27656;53.068;8.818;2024-03-08T10:08:28;29.10;;;18.27;;
41966;SDS011;27656;53.068;8.818;2024-03-08T10:10:57;30.73;;;17.97;;
41966;SDS011;27656;53.068;8.818;2024-03-08T10:13:24;34.80;;;18.63;;
41966;SDS011;27656;53.068;8.818;2024-03-08T10:15:54;27.90;;;17.23;;
41966;SDS011;27656;53.068;8.818;2024-03-08T10:18:20;28.07;;;17.73;;
41966;SDS011;27656;53.068;8.818;2024-03-08T10:21:03;29.33;;;18.43;;
41966;SDS011;27656;53.068;8.818;2024-03-08T10:23:31;30.30;;;17.93;;
41966;SDS011;27656;53.068;8.818;2024-03-08T10:26:09;31.07;;;17.63;;
41966;SDS011;27656;53.068;8.818;2024-03-08T10:28:42;31.47;;;18.67;;
41966;SDS011;27656;53.068;8.818;2024-03-08T10:31:10;29.03;;;17.50;;
41966;SDS011;27656;53.068;8.818;2024-03-08T10:33:39;28.87;;;17.57;;
41966;SDS011;27656;53.068;8.818;2024-03-08T10:36:07;28.57;;;17.33;;
41966;SDS011;27656;53.068;8.818;2024-03-08T10:38:36;29.83;;;18.40;;
41966;SDS011;27656;53.068;8.818;2024-03-08T10:41:05;30.63;;;18.53;;
41966;SDS011;27656;53.068;8.818;2024-03-08T10:43:37;29.93;;;18.27;;
41966;SDS011;27656;53.068;8.818;2024-03-08T10:46:57;29.77;;;18.23;;
41966;SDS011;27656;53.068;8.818;2024-03-08T10:49:32;31.67;;;18.60;;
41966;SDS011;27656;53.068;8.818;2024-03-08T10:52:05;27.97;;;16.97;;
41966;SDS011;27656;53.068;8.818;2024-03-08T10:54:36;28.43;;;17.63;;
41966;SDS011;27656;53.068;8.818;2024-03-08T10:57:10;29.57;;;18.00;;
41966;SDS011;27656;53.068;8.818;2024-03-08T10:59:38;30.00;;;19.13;;
41966;SDS011;27656;53.068;8.818;2024-03-08T11:02:05;28.03;;;16.80;;
41966;SDS011;27656;53.068;8.818;2024-03-08T11:04:32;32.30;;;18.50;;
41966;SDS011;27656;53.068;8.818;2024-03-08T11:07:00;30.07;;;17.17;;
41966;SDS011;27656;53.068;8.818;2024-03-08T11:09:37;26.03;;;17.10;;
41966;SDS011;27656;53.068;8.818;2024-03-08T11:12:24;28.43;;;16.97;;
41966;SDS011;27656;53.068;8.818;2024-03-08T11:14:52;29.57;;;18.00;;
41966;SDS011;27656;53.068;8.818;2024-03-08T11:17:20;27.43;;;17.40;;
41966;SDS011;27656;53.068;8.818;2024-03-08T11:19:48;27.40;;;16.73;;
41966;SDS011;27656;53.068;8.818;2024-03-08T11:22:23;29.20;;;17.43;;
41966;SDS011;27656;53.068;8.818;2024-03-08T11:24:53;27.93;;;16.67;;
41966;SDS011;27656;53.068;8.818;2024-03-08T11:27:29;27.33;;;17.20;;
41966;SDS011;27656;53.068;8.818;2024-03-08T11:30:04;28.93;;;17.43;;
41966;SDS011;27656;53.068;8.818;2024-03-08T11:32:45;28.33;;;16.57;;
41966;SDS011;27656;53.068;8.818;2024-03-08T11:35:19;29.50;;;17.77;;
41966;SDS011;27656;53.068;8.818;2024-03-08T11:37:47;29.47;;;16.67;;
41966;SDS011;27656;53.068;8.818;2024-03-08T11:40:15;28.30;;;17.70;;
41966;SDS011;27656;53.068;8.818;2024-03-08T11:42:47;32.27;;;17.20;;
41966;SDS011;27656;53.068;8.818;2024-03-08T11:45:15;29.13;;;16.93;;
41966;SDS011;27656;53.068;8.818;2024-03-08T11:47:44;25.33;;;15.83;;
41966;SDS011;27656;53.068;8.818;2024-03-08T11:50:13;25.13;;;16.50;;
41966;SDS011;27656;53.068;8.818;2024-03-08T11:52:40;29.03;;;16.20;;
41966;SDS011;27656;53.068;8.818;2024-03-08T11:55:08;26.20;;;16.80;;
41966;SDS011;27656;53.068;8.818;2024-03-08T11:57:35;28.00;;;16.73;;
41966;SDS011;27656;53.068;8.818;2024-03-08T12:00:02;27.63;;;16.27;;
41966;SDS011;27656;53.068;8.818;2024-03-08T12:02:33;27.23;;;16.77;;
41966;SDS011;27656;53.068;8.818;2024-03-08T12:05:02;23.33;;;15.70;;
41966;SDS011;27656;53.068;8.818;2024-03-08T12:07:30;24.97;;;14.80;;
41966;SDS011;27656;53.068;8.818;2024-03-08T12:10:15;21.53;;;13.70;;
41966;SDS011;27656;53.068;8.818;2024-03-08T12:12:46;19.97;;;13.60;;
41966;SDS011;27656;53.068;8.818;2024-03-08T12:15:15;25.40;;;15.47;;
41966;SDS011;27656;53.068;8.818;2024-03-08T12:17:42;24.40;;;15.60;;
41966;SDS011;27656;53.068;8.818;2024-03-08T12:20:13;32.33;;;17.13;;
41966;SDS011;27656;53.068;8.818;2024-03-08T12:22:42;25.73;;;15.83;;
41966;SDS011;27656;53.068;8.818;2024-03-08T12:25:13;26.70;;;15.63;;
41966;SDS011;27656;53.068;8.818;2024-03-08T12:27:40;30.97;;;16.53;;
41966;SDS011;27656;53.068;8.818;2024-03-08T12:30:17;26.03;;;16.00;;
41966;SDS011;27656;53.068;8.818;2024-03-08T12:32:54;25.97;;;16.43;;
41966;SDS011;27656;53.068;8.818;2024-03-08T12:35:29;28.60;;;16.47;;
41966;SDS011;27656;53.068;8.818;2024-03-08T12:37:57;25.23;;;15.90;;
41966;SDS011;27656;53.068;8.818;2024-03-08T12:40:26;26.73;;;15.50;;
41966;SDS011;27656;53.068;8.818;2024-03-08T12:42:58;26.03;;;16.77;;
41966;SDS011;27656;53.068;8.818;2024-03-08T12:45:25;24.57;;;16.47;;
41966;SDS011;27656;53.068;8.818;2024-03-08T12:47:51;26.70;;;16.87;;
41966;SDS011;27656;53.068;8.818;2024-03-08T12:50:20;25.67;;;16.40;;
41966;SDS011;27656;53.068;8.818;2024-03-08T12:52:47;26.30;;;16.50;;
41966;SDS011;27656;53.068;8.818;2024-03-08T12:55:19;29.43;;;17.70;;
41966;SDS011;27656;53.068;8.818;2024-03-08T12:57:45;28.77;;;18.03;;
41966;SDS011;27656;53.068;8.818;2024-03-08T13:00:14;27.67;;;18.03;;
41966;SDS011;27656;53.068;8.818;2024-03-08T13:02:45;27.20;;;16.43;;
41966;SDS011;27656;53.068;8.818;2024-03-08T13:05:12;31.03;;;18.07;;
41966;SDS011;27656;53.068;8.818;2024-03-08T13:07:41;28.53;;;16.87;;
41966;SDS011;27656;53.068;8.818;2024-03-08T13:10:13;29.77;;;17.23;;
41966;SDS011;27656;53.068;8.818;2024-03-08T13:12:43;30.03;;;17.00;;
41966;SDS011;27656;53.068;8.818;2024-03-08T13:15:10;30.57;;;18.57;;
41966;SDS011;27656;53.068;8.818;2024-03-08T13:17:42;31.77;;;18.40;;
41966;SDS011;27656;53.068;8.818;2024-03-08T13:20:10;28.60;;;18.57;;
41966;SDS011;27656;53.068;8.818;2024-03-08T13:22:47;28.77;;;16.90;;
41966;SDS011;27656;53.068;8.818;2024-03-08T13:25:13;31.03;;;19.20;;
41966;SDS011;27656;53.068;8.818;2024-03-08T13:27:40;31.33;;;17.80;;
41966;SDS011;27656;53.068;8.818;2024-03-08T13:30:09;28.93;;;17.10;;
41966;SDS011;27656;53.068;8.818;2024-03-08T13:32:41;30.10;;;17.50;;
41966;SDS011;27656;53.068;8.818;2024-03-08T13:35:11;25.83;;;16.53;;
41966;SDS011;27656;53.068;8.818;2024-03-08T13:37:41;26.53;;;16.60;;
41966;SDS011;27656;53.068;8.818;2024-03-08T13:40:09;27.70;;;16.90;;
41966;SDS011;27656;53.068;8.818;2024-03-08T13:42:37;29.20;;;17.10;;
41966;SDS011;27656;53.068;8.818;2024-03-08T13:45:05;29.03;;;17.07;;
41966;SDS011;27656;53.068;8.818;2024-03-08T13:47:35;31.17;;;17.47;;
41966;SDS011;27656;53.068;8.818;2024-03-08T13:50:02;26.57;;;17.07;;
41966;SDS011;27656;53.068;8.818;2024-03-08T13:52:28;27.07;;;16.13;;
41966;SDS011;27656;53.068;8.818;2024-03-08T13:54:55;28.47;;;16.63;;
41966;SDS011;27656;53.068;8.818;2024-03-08T13:57:22;28.17;;;16.70;;
41966;SDS011;27656;53.068;8.818;2024-03-08T13:59:48;29.10;;;17.20;;
41966;SDS011;27656;53.068;8.818;2024-03-08T14:02:18;26.67;;;16.07;;
41966;SDS011;27656;53.068;8.818;2024-03-08T14:04:44;23.97;;;16.00;;
41966;SDS011;27656;53.068;8.818;2024-03-08T14:07:11;27.47;;;16.93;;
41966;SDS011;27656;53.068;8.818;2024-03-08T14:09:38;31.67;;;17.67;;
41966;SDS011;27656;53.068;8.818;2024-03-08T14:12:09;24.90;;;15.67;;
41966;SDS011;27656;53.068;8.818;2024-03-08T14:14:36;27.87;;;16.90;;
41966;SDS011;27656;53.068;8.818;2024-03-08T14:17:03;23.63;;;15.40;;
41966;SDS011;27656;53.068;8.818;2024-03-08T14:19:30;25.70;;;15.87;;
41966;SDS011;27656;53.068;8.818;2024-03-08T14:21:57;28.40;;;16.77;;
41966;SDS011;27656;53.068;8.818;2024-03-08T14:24:25;30.77;;;16.70;;
41966;SDS011;27656;53.068;8.818;2024-03-08T14:26:52;25.93;;;16.13;;